Time;durP1;ratioP1;P1;durP2;ratioP2;P2;SDS_P1;SDS_P2;PMS_P1;PMS_P2;Temp;Humidity;BMP_temperature;BMP_pressure;BME280_temperature;BME280_humidity;BME280_pressure;Samples;Min_cycle;Max_cycle;Signal;HPM_P1;HPM_P2
2024/03/18 00:02:17;;;;;;;8.20;7.50;;;;;;;9.52;100.00;100449.94;5009311;28;20037;-75
2024/03/18 00:04:43;;;;;;;8.75;7.32;;;;;;;9.69;100.00;100468.38;5019326;28;20069;-76
2024/03/18 00:07:09;;;;;;;6.50;6.00;;;;;;;9.35;100.00;100437.63;5026967;28;20057;-73
2024/03/18 00:09:36;;;;;;;9.73;8.82;;;;;;;9.33;100.00;100478.66;5023892;28;20046;-73
2024/03/18 00:12:02;;;;;;;1.65;1.55;;;;;;;9.22;100.00;100440.16;5027619;28;20133;-73
2024/03/18 00:14:27;;;;;;;9.35;8.45;;;;;;;9.24;100.00;100466.38;5032215;28;20049;-74
2024/03/18 00:16:53;;;;;;;11.60;10.25;;;;;;;9.38;100.00;100490.03;5041164;28;20408;-74
2024/03/18 00:19:19;;;;;;;3.00;2.78;;;;;;;9.39;100.00;100474.31;5047666;28;20444;-74
2024/03/18 00:21:45;;;;;;;12.40;9.07;;;;;;;9.45;100.00;100473.47;5046019;28;20068;-74
2024/03/18 00:24:10;;;;;;;11.45;10.07;;;;;;;9.29;100.00;100459.41;5048041;28;20848;-76
2024/03/18 00:26:36;;;;;;;2.30;2.13;;;;;;;9.00;100.00;100420.84;5023910;28;20048;-76
2024/03/18 00:29:02;;;;;;;7.65;7.30;;;;;;;9.23;100.00;100446.31;5004504;28;20022;-74
2024/03/18 00:31:28;;;;;;;10.13;9.07;;;;;;;8.97;100.00;100438.28;5008183;28;20041;-76
2024/03/18 00:33:53;;;;;;;16.67;10.10;;;;;;;9.22;100.00;100471.59;5011416;28;20046;-74
2024/03/18 00:36:20;;;;;;;1.98;1.88;;;;;;;8.83;100.00;100459.13;5025724;28;20055;-74
2024/03/18 00:38:46;;;;;;;3.97;3.78;;;;;;;8.66;100.00;100431.09;5014065;28;20046;-73
2024/03/18 00:43:58;;;;;;;9.32;8.43;;;;;;;8.79;100.00;100411.09;5005797;28;20105;-74
2024/03/18 00:46:24;;;;;;;3.92;3.60;;;;;;;8.71;100.00;100410.19;5000621;28;20034;-74
2024/03/18 00:48:49;;;;;;;6.40;6.00;;;;;;;8.96;100.00;100450.47;5008127;28;20055;-75
2024/03/18 00:51:15;;;;;;;5.50;5.10;;;;;;;8.87;100.00;100419.00;5006988;28;20544;-73
2024/03/18 00:53:41;;;;;;;13.68;11.82;;;;;;;8.88;100.00;100426.88;5008781;28;20470;-75
2024/03/18 00:56:07;;;;;;;1.08;1.05;;;;;;;8.95;100.00;100433.03;5007487;28;20049;-76
2024/03/18 00:58:33;;;;;;;2.10;1.95;;;;;;;8.58;100.00;100421.41;5010112;28;20037;-74
2024/03/18 01:00:59;;;;;;;0.50;0.50;;;;;;;8.83;100.00;100432.94;5009376;28;20057;-75
2024/03/18 01:03:25;;;;;;;12.13;9.90;;;;;;;8.92;100.00;100429.50;5010887;28;20395;-73
2024/03/18 01:05:52;;;;;;;8.13;7.47;;;;;;;8.99;100.00;100424.34;5026086;28;20133;-75
2024/03/18 01:08:18;;;;;;;5.47;5.18;;;;;;;8.97;100.00;100423.44;5014314;28;20046;-75
2024/03/18 01:10:43;;;;;;;4.00;3.80;;;;;;;8.90;100.00;100424.28;5003719;28;20037;-74
2024/03/18 01:13:11;;;;;;;16.88;9.07;;;;;;;8.80;100.00;100398.91;5009451;28;20145;-74
2024/03/18 01:15:40;;;;;;;15.65;9.70;;;;;;;8.61;100.00;100405.72;5010229;28;20048;-73
2024/03/18 01:18:06;;;;;;;1.88;1.77;;;;;;;8.66;100.00;100432.78;5008322;28;20500;-74
2024/03/18 01:20:38;;;;;;;2.58;2.38;;;;;;;8.44;100.00;100401.25;5004791;28;20038;-74
2024/03/18 01:23:05;;;;;;;4.72;4.25;;;;;;;8.69;100.00;100439.81;5004887;28;20026;-75
2024/03/18 01:25:32;;;;;;;1.05;1.02;;;;;;;8.81;100.00;100450.38;5007173;28;20359;-74
2024/03/18 01:27:58;;;;;;;1.67;1.05;;;;;;;8.10;100.00;100414.81;5006327;28;20053;-75
2024/03/18 01:30:24;;;;;;;9.27;8.45;;;;;;;8.06;100.00;100410.44;5017312;28;20042;-73
2024/03/18 01:32:49;;;;;;;2.03;1.38;;;;;;;8.14;100.00;100446.22;5005360;28;20248;-75
2024/03/18 01:35:22;;;;;;;5.28;4.93;;;;;;;7.90;100.00;100425.94;5004952;28;20044;-74
2024/03/18 01:37:49;;;;;;;1.48;1.38;;;;;;;8.25;100.00;100418.47;5008497;28;20038;-75
2024/03/18 01:40:17;;;;;;;9.07;8.35;;;;;;;8.51;100.00;100457.09;5020581;28;20042;-74
2024/03/18 01:42:47;;;;;;;7.93;7.22;;;;;;;8.05;100.00;100427.84;5009961;28;20149;-73
2024/03/18 01:45:21;;;;;;;6.65;6.05;;;;;;;8.07;100.00;100440.94;5011325;28;20099;-74
2024/03/18 01:47:47;;;;;;;0.60;0.60;;;;;;;7.65;100.00;100432.63;5009583;28;20116;-73
2024/03/18 01:50:13;;;;;;;2.45;2.35;;;;;;;7.68;100.00;100473.56;5005824;28;20620;-73
2024/03/18 01:52:39;;;;;;;9.55;6.90;;;;;;;7.66;100.00;100504.03;5005217;28;20123;-73
2024/03/18 01:55:05;;;;;;;1.80;1.70;;;;;;;7.48;100.00;100461.13;5004841;28;20058;-73
2024/03/18 01:57:30;;;;;;;2.03;1.92;;;;;;;7.45;100.00;100471.53;5001626;28;20077;-74
2024/03/18 02:00:00;;;;;;;1.40;1.30;;;;;;;7.80;100.00;100521.63;5010523;28;20052;-75
2024/03/18 02:02:26;;;;;;;2.15;2.03;;;;;;;7.56;100.00;100483.03;5002848;28;20151;-73
2024/03/18 02:04:51;;;;;;;13.77;12.52;;;;;;;7.45;100.00;100470.69;5004470;28;20036;-75
2024/03/18 02:07:24;;;;;;;4.75;4.45;;;;;;;7.66;100.00;100522.31;5011657;28;20043;-75
2024/03/18 02:09:49;;;;;;;6.35;5.95;;;;;;;7.27;100.00;100482.59;5006190;28;20072;-74
2024/03/18 02:12:16;;;;;;;1.98;1.88;;;;;;;7.33;100.00;100487.91;5008980;28;20050;-75
2024/03/18 02:14:45;;;;;;;0.50;0.50;;;;;;;7.14;100.00;100471.13;5005454;28;20110;-74
2024/03/18 02:17:12;;;;;;;1.08;1.08;;;;;;;7.35;100.00;100491.44;5002342;28;20046;-74
2024/03/18 02:19:39;;;;;;;14.73;12.75;;;;;;;7.42;100.00;100502.81;5003650;28;20048;-74
2024/03/18 02:22:06;;;;;;;4.32;4.03;;;;;;;7.56;100.00;100506.53;5000885;28;20053;-75
2024/03/18 02:24:32;;;;;;;3.50;3.25;;;;;;;7.37;100.00;100494.03;4999477;28;20606;-75
2024/03/18 02:27:28;;;;;;;2.15;2.05;;;;;;;7.73;100.00;100545.91;5007330;28;20045;-73
2024/03/18 02:29:56;;;;;;;8.55;8.07;;;;;;;7.39;100.00;100534.97;5016266;28;20052;-74
2024/03/18 02:32:21;;;;;;;1.10;1.05;;;;;;;7.40;100.00;100500.19;5005649;28;20132;-74
2024/03/18 02:34:47;;;;;;;2.15;2.05;;;;;;;7.67;100.00;100517.09;5007559;28;20474;-75
2024/03/18 02:37:13;;;;;;;2.20;2.10;;;;;;;7.92;100.00;100554.88;5005366;28;20090;-74
2024/03/18 02:39:38;;;;;;;3.40;3.10;;;;;;;7.86;100.00;100543.47;5004902;28;20045;-75
2024/03/18 02:42:04;;;;;;;8.13;7.55;;;;;;;7.84;100.00;100548.66;4997409;28;20494;-74
2024/03/18 02:44:30;;;;;;;4.47;4.18;;;;;;;8.02;100.00;100548.88;5003634;28;20314;-74
2024/03/18 02:46:56;;;;;;;11.70;10.48;;;;;;;7.94;100.00;100545.31;5001138;28;20116;-74
2024/03/18 02:49:21;;;;;;;7.57;7.07;;;;;;;7.72;100.00;100497.13;5006865;28;20105;-73
2024/03/18 02:51:47;;;;;;;1.45;1.38;;;;;;;8.09;100.00;100546.38;5015170;28;20042;-74
2024/03/18 02:54:12;;;;;;;5.70;5.38;;;;;;;8.12;100.00;100533.31;5006342;28;20046;-73
2024/03/18 02:56:38;;;;;;;10.45;7.90;;;;;;;8.05;100.00;100529.75;5005133;28;20053;-76
2024/03/18 02:59:03;;;;;;;0.40;0.40;;;;;;;8.13;100.00;100535.09;5001555;28;20391;-74
2024/03/18 03:01:29;;;;;;;3.88;3.67;;;;;;;8.18;100.00;100536.03;5006037;28;20072;-74
2024/03/18 03:03:55;;;;;;;1.05;1.05;;;;;;;8.04;100.00;100538.47;5026518;28;20723;-74
2024/03/18 03:06:21;;;;;;;8.18;6.05;;;;;;;8.04;100.00;100517.56;5023096;28;20132;-73
2024/03/18 03:08:47;;;;;;;8.25;4.65;;;;;;;7.94;100.00;100498.28;5033320;28;20038;-74
2024/03/18 03:11:13;;;;;;;0.40;0.40;;;;;;;7.92;100.00;100493.91;5022214;28;20062;-74
2024/03/18 03:13:39;;;;;;;0.40;0.40;;;;;;;8.00;100.00;100503.56;5025715;28;20533;-73
2024/03/18 03:16:14;;;;;;;0.60;0.60;;;;;;;8.06;100.00;100528.91;5029378;28;20045;-75
2024/03/18 03:18:39;;;;;;;1.85;1.75;;;;;;;7.87;100.00;100526.94;5028168;28;20079;-74
2024/03/18 03:21:06;;;;;;;0.98;0.93;;;;;;;7.67;100.00;100497.94;5019482;28;20053;-73
2024/03/18 03:23:36;;;;;;;0.82;0.82;;;;;;;7.52;100.00;100538.66;5023450;28;20045;-75
2024/03/18 03:26:02;;;;;;;0.30;0.30;;;;;;;7.57;100.00;100502.16;5019199;28;20040;-74
2024/03/18 03:28:29;;;;;;;2.63;2.42;;;;;;;7.71;100.00;100539.78;5026190;28;20033;-74
2024/03/18 03:31:05;;;;;;;2.72;2.60;;;;;;;7.69;100.00;100493.63;5022627;28;20085;-74
2024/03/18 03:33:33;;;;;;;1.58;1.48;;;;;;;7.65;100.00;100505.75;5003372;28;20062;-75
2024/03/18 03:36:00;;;;;;;0.35;0.35;;;;;;;7.37;100.00;100535.81;5002658;28;20045;-73
2024/03/18 03:38:25;;;;;;;0.95;0.95;;;;;;;7.21;100.00;100549.47;5004529;28;20108;-74
2024/03/18 03:40:52;;;;;;;6.53;5.88;;;;;;;7.15;100.00;100498.06;5005525;28;20053;-75
2024/03/18 03:43:18;;;;;;;0.60;0.60;;;;;;;7.07;100.00;100499.69;5003132;28;20049;-74
2024/03/18 03:45:57;;;;;;;9.98;6.00;;;;;;;7.21;100.00;100534.72;5022980;28;20501;-73
2024/03/18 03:48:23;;;;;;;4.03;3.83;;;;;;;7.44;100.00;100536.78;5010515;28;20049;-75
2024/03/18 03:50:50;;;;;;;5.53;4.28;;;;;;;7.46;100.00;100524.63;5006695;28;20741;-75
2024/03/18 03:53:19;;;;;;;1.48;1.42;;;;;;;7.23;100.00;100527.75;5008944;28;20064;-75
2024/03/18 03:55:45;;;;;;;1.40;1.35;;;;;;;7.00;100.00;100498.72;5007864;28;20460;-73
2024/03/18 03:58:12;;;;;;;3.47;3.17;;;;;;;7.33;100.00;100526.19;5023673;28;20606;-73
2024/03/18 04:00:47;;;;;;;1.00;1.00;;;;;;;7.09;100.00;100547.53;5027487;28;20438;-76
2024/03/18 04:03:17;;;;;;;2.20;2.05;;;;;;;6.88;100.00;100535.03;5030082;28;20057;-73
2024/03/18 04:05:43;;;;;;;0.35;0.35;;;;;;;6.70;100.00;100519.97;5021563;28;20073;-75
2024/03/18 04:08:09;;;;;;;0.65;0.65;;;;;;;7.00;100.00;100543.06;5029353;28;20053;-75
2024/03/18 04:10:35;;;;;;;0.50;0.50;;;;;;;7.08;100.00;100517.09;5022538;28;20034;-74
2024/03/18 04:13:01;;;;;;;0.70;0.70;;;;;;;7.20;100.00;100530.34;5048201;28;20060;-75
2024/03/18 04:15:27;;;;;;;5.10;4.60;;;;;;;7.33;100.00;100545.34;5024404;28;21073;-74
2024/03/18 04:17:54;;;;;;;1.05;1.05;;;;;;;7.38;100.00;100514.97;5022987;28;20053;-74
2024/03/18 04:20:21;;;;;;;1.63;1.52;;;;;;;7.52;100.00;100530.81;5023131;28;20083;-73
2024/03/18 04:22:56;;;;;;;0.40;0.40;;;;;;;7.48;100.00;100535.97;5027373;28;20473;-76
2024/03/18 04:25:37;;;;;;;1.00;1.00;;;;;;;7.11;100.00;100494.53;5020090;28;20069;-73
2024/03/18 04:28:06;;;;;;;0.50;0.50;;;;;;;7.38;100.00;100508.88;4999472;28;20059;-75
2024/03/18 04:30:36;;;;;;;0.50;0.50;;;;;;;7.46;100.00;100538.56;5007187;28;20132;-75
2024/03/18 04:33:04;;;;;;;0.30;0.30;;;;;;;7.54;100.00;100541.31;5003926;28;20293;-74
2024/03/18 04:35:29;;;;;;;5.88;5.50;;;;;;;7.24;100.00;100493.00;5010895;28;20058;-73
2024/03/18 04:37:55;;;;;;;0.32;0.32;;;;;;;7.39;100.00;100494.94;4997311;28;20027;-74
2024/03/18 04:40:22;;;;;;;0.65;0.65;;;;;;;7.26;100.00;100499.13;5015708;28;20493;-74
2024/03/18 04:42:48;;;;;;;0.65;0.65;;;;;;;7.36;100.00;100511.44;5028340;28;20747;-74
2024/03/18 04:45:16;;;;;;;0.20;0.20;;;;;;;7.27;100.00;100495.66;5026972;28;20052;-75
2024/03/18 04:47:45;;;;;;;2.63;2.22;;;;;;;7.11;100.00;100536.28;5017787;28;20739;-75
2024/03/18 04:50:12;;;;;;;2.05;1.95;;;;;;;7.17;100.00;100532.91;5016672;28;20054;-74
2024/03/18 04:52:38;;;;;;;1.92;1.75;;;;;;;7.05;100.00;100551.84;5009350;28;20038;-75
2024/03/18 04:55:05;;;;;;;0.30;0.30;;;;;;;7.06;100.00;100518.81;5006489;28;20048;-73
2024/03/18 04:57:35;;;;;;;0.30;0.30;;;;;;;7.15;100.00;100551.13;5023422;28;20164;-75
2024/03/18 05:00:06;;;;;;;0.88;0.88;;;;;;;6.84;100.00;100521.06;5022923;28;20064;-73
2024/03/18 05:02:31;;;;;;;0.25;0.25;;;;;;;7.30;100.00;100562.66;5019560;28;20057;-74
2024/03/18 05:04:57;;;;;;;0.32;0.32;;;;;;;7.31;100.00;100544.44;5011578;28;20030;-74
2024/03/18 05:07:22;;;;;;;1.10;1.10;;;;;;;7.03;100.00;100510.94;5025652;28;20059;-75
2024/03/18 05:09:53;;;;;;;0.32;0.32;;;;;;;7.15;100.00;100558.97;5039694;28;20393;-74
2024/03/18 05:12:19;;;;;;;4.88;4.68;;;;;;;7.01;100.00;100541.34;5011664;28;20054;-74
2024/03/18 05:14:45;;;;;;;0.50;0.50;;;;;;;7.03;100.00;100505.72;5005576;28;20042;-75
2024/03/18 05:17:10;;;;;;;0.28;0.28;;;;;;;7.27;100.00;100553.06;5007067;28;20817;-75
2024/03/18 05:19:36;;;;;;;0.95;0.93;;;;;;;6.92;100.00;100532.50;5003773;28;20164;-74
2024/03/18 05:22:02;;;;;;;4.70;4.40;;;;;;;7.18;100.00;100555.53;5003266;28;20054;-74
2024/03/18 05:24:28;;;;;;;0.88;0.88;;;;;;;7.23;100.00;100553.00;5009057;28;20046;-74
2024/03/18 05:26:53;;;;;;;5.75;5.45;;;;;;;7.16;100.00;100565.06;5004690;28;20045;-76
2024/03/18 05:29:19;;;;;;;1.90;1.80;;;;;;;7.36;100.00;100566.25;5009753;28;20942;-75
2024/03/18 05:31:46;;;;;;;0.40;0.40;;;;;;;7.23;100.00;100534.72;5010545;28;20035;-76
2024/03/18 05:34:11;;;;;;;1.45;1.40;;;;;;;7.21;100.00;100528.59;5018756;28;20061;-74
2024/03/18 05:36:37;;;;;;;0.30;0.30;;;;;;;7.08;100.00;100541.47;5004569;28;20042;-75
2024/03/18 05:39:04;;;;;;;1.15;1.15;;;;;;;7.05;100.00;100566.63;5008353;28;20464;-75
2024/03/18 05:41:30;;;;;;;2.05;1.73;;;;;;;7.03;100.00;100542.25;5000122;28;20044;-76
2024/03/18 05:43:57;;;;;;;0.30;0.30;;;;;;;7.14;100.00;100528.53;5006617;28;20087;-74
2024/03/18 05:46:23;;;;;;;0.40;0.40;;;;;;;7.26;100.00;100568.69;5005686;28;20489;-74
2024/03/18 05:48:51;;;;;;;0.55;0.55;;;;;;;6.77;100.00;100459.22;5021985;28;20103;-75
2024/03/18 05:51:17;;;;;;;0.32;0.32;;;;;;;7.28;100.00;100543.50;5019294;28;20136;-74
2024/03/18 05:53:44;;;;;;;3.45;2.65;;;;;;;7.50;100.00;100563.84;5007893;28;20459;-74
2024/03/18 05:56:10;;;;;;;0.20;0.20;;;;;;;7.50;100.00;100557.78;5004299;28;20045;-76
2024/03/18 05:58:41;;;;;;;0.82;0.82;;;;;;;7.37;100.00;100531.50;5004448;28;20025;-75
2024/03/18 06:01:11;;;;;;;1.55;0.60;;;;;;;7.75;100.00;100558.97;4999219;28;20434;-73
2024/03/18 06:03:39;;;;;;;5.57;5.32;;;;;;;7.66;100.00;100517.97;5021548;28;20128;-74
2024/03/18 06:06:12;;;;;;;0.75;0.75;;;;;;;7.68;100.00;100554.53;5002720;28;20124;-75
2024/03/18 06:08:38;;;;;;;3.70;2.80;;;;;;;7.55;100.00;100535.22;5001843;28;20039;-75
2024/03/18 06:11:08;;;;;;;0.85;0.60;;;;;;;7.77;100.00;100565.09;5013714;28;20057;-76
2024/03/18 06:13:34;;;;;;;0.30;0.30;;;;;;;7.74;100.00;100575.50;5037767;28;20033;-75
2024/03/18 06:16:01;;;;;;;0.60;0.60;;;;;;;7.68;100.00;100551.91;5006781;28;20128;-75
2024/03/18 06:18:28;;;;;;;0.30;0.30;;;;;;;7.75;100.00;100574.66;5005307;28;20057;-75
2024/03/18 06:20:55;;;;;;;0.20;0.20;;;;;;;7.67;100.00;100542.34;5005804;28;20042;-75
2024/03/18 06:23:30;;;;;;;0.57;0.50;;;;;;;7.89;100.00;100577.44;5005863;28;20042;-75
2024/03/18 06:25:59;;;;;;;0.30;0.30;;;;;;;7.73;100.00;100538.06;5002923;28;20033;-75
2024/03/18 06:28:25;;;;;;;2.50;2.25;;;;;;;8.04;100.00;100569.81;5001608;28;20042;-75
2024/03/18 06:30:52;;;;;;;4.22;3.95;;;;;;;7.99;100.00;100555.84;5011296;28;20054;-74
2024/03/18 06:33:18;;;;;;;0.20;0.20;;;;;;;7.80;100.00;100521.63;5019057;28;20144;-74
2024/03/18 06:35:47;;;;;;;0.40;0.40;;;;;;;7.92;100.00;100575.78;5022510;28;20111;-76
2024/03/18 06:38:14;;;;;;;0.20;0.20;;;;;;;7.95;100.00;100559.25;5006360;28;20041;-74
2024/03/18 06:40:39;;;;;;;1.73;1.63;;;;;;;7.69;100.00;100530.19;5005424;28;20069;-73
2024/03/18 06:43:07;;;;;;;26.50;3.08;;;;;;;7.92;100.00;100554.00;5001282;28;20141;-74
2024/03/18 06:45:36;;;;;;;3.40;2.55;;;;;;;7.69;100.00;100486.66;5004647;28;20045;-75
2024/03/18 06:48:03;;;;;;;0.93;0.93;;;;;;;8.04;100.00;100544.56;5004314;28;20045;-74
2024/03/18 06:50:39;;;;;;;0.77;0.77;;;;;;;7.90;100.00;100495.63;4996541;28;20062;-75
2024/03/18 06:53:07;;;;;;;2.15;0.68;;;;;;;8.37;100.00;100532.75;5000474;28;20094;-74
2024/03/18 06:55:34;;;;;;;9.32;8.40;;;;;;;8.53;100.00;100546.03;4997019;28;20601;-76
2024/03/18 06:58:03;;;;;;;0.30;0.30;;;;;;;8.41;100.00;100516.28;5016466;28;20071;-75
2024/03/18 07:00:30;;;;;;;0.82;0.75;;;;;;;8.47;100.00;100562.50;5016546;28;20073;-75
2024/03/18 07:02:55;;;;;;;1.52;1.45;;;;;;;8.48;100.00;100539.88;4998587;28;20493;-79
2024/03/18 07:05:22;;;;;;;0.20;0.20;;;;;;;8.46;100.00;100563.38;4988332;28;20111;-78
2024/03/18 07:07:49;;;;;;;0.95;0.85;;;;;;;8.67;100.00;100575.81;4987281;28;20068;-77
2024/03/18 07:10:15;;;;;;;0.20;0.20;;;;;;;8.03;100.00;100574.19;4989259;28;20042;-77
2024/03/18 07:12:42;;;;;;;0.85;0.85;;;;;;;8.64;100.00;100545.28;4985312;28;20068;-78
2024/03/18 07:15:11;;;;;;;1.08;1.08;;;;;;;8.78;100.00;100550.66;4988761;28;20108;-78
2024/03/18 07:17:37;;;;;;;0.60;0.60;;;;;;;8.28;100.00;100535.25;4998192;28;20458;-77
2024/03/18 07:20:08;;;;;;;0.30;0.30;;;;;;;7.88;100.00;100558.28;5007515;28;20107;-78
2024/03/18 07:22:34;;;;;;;1.25;1.15;;;;;;;8.39;100.00;100566.75;5009931;28;20038;-76
2024/03/18 07:24:59;;;;;;;4.63;2.85;;;;;;;8.35;100.00;100573.69;5006112;28;20148;-77
2024/03/18 07:27:26;;;;;;;0.40;0.40;;;;;;;8.47;100.00;100559.03;4996404;28;20511;-76
2024/03/18 07:29:56;;;;;;;0.55;0.55;;;;;;;8.81;100.00;100558.50;4988443;28;20058;-76
2024/03/18 07:32:24;;;;;;;0.30;0.30;;;;;;;8.36;100.00;100565.00;4986322;28;20057;-75
2024/03/18 07:34:50;;;;;;;0.40;0.40;;;;;;;7.61;100.00;100572.75;4989186;28;20255;-76
2024/03/18 07:37:17;;;;;;;1.30;1.20;;;;;;;8.39;100.00;100533.66;5004529;28;20114;-75
2024/03/18 07:39:43;;;;;;;3.92;3.58;;;;;;;8.75;100.00;100523.56;4989382;28;20119;-76
2024/03/18 07:42:11;;;;;;;0.30;0.30;;;;;;;8.55;100.00;100537.34;4986502;28;20057;-76
2024/03/18 07:44:37;;;;;;;0.30;0.30;;;;;;;8.98;100.00;100545.56;4990740;28;20053;-74
2024/03/18 07:47:03;;;;;;;0.40;0.40;;;;;;;8.82;100.00;100528.00;4989609;28;20160;-74
2024/03/18 07:49:29;;;;;;;0.20;0.20;;;;;;;9.21;100.00;100535.28;4992314;28;20081;-74
2024/03/18 07:51:55;;;;;;;2.53;2.42;;;;;;;9.39;100.00;100544.13;4990472;28;20132;-76
2024/03/18 07:54:20;;;;;;;0.40;0.40;;;;;;;8.77;100.00;100415.44;4986019;28;20050;-76
2024/03/18 07:56:46;;;;;;;0.55;0.50;;;;;;;8.92;100.00;100553.41;4985778;28;20072;-75
2024/03/18 07:59:12;;;;;;;2.15;1.95;;;;;;;9.65;100.00;100547.81;4986648;28;20493;-76
2024/03/18 08:01:38;;;;;;;0.32;0.30;;;;;;;9.98;100.00;100538.38;4986160;28;20172;-74
2024/03/18 08:04:04;;;;;;;2.25;2.05;;;;;;;10.06;100.00;100510.44;4989172;28;20045;-74
2024/03/18 08:06:30;;;;;;;0.20;0.20;;;;;;;10.12;100.00;100539.31;4988262;28;20474;-75
2024/03/18 08:08:55;;;;;;;0.20;0.20;;;;;;;10.15;100.00;100535.81;4985807;28;20053;-73
2024/03/18 08:11:21;;;;;;;1.30;1.20;;;;;;;10.08;100.00;100495.59;4985807;28;20153;-75
2024/03/18 08:13:46;;;;;;;2.00;1.90;;;;;;;9.90;100.00;100521.72;4988850;28;20781;-74
2024/03/18 08:16:12;;;;;;;21.77;1.25;;;;;;;9.38;100.00;100500.50;4990251;28;21465;-74
2024/03/18 08:18:38;;;;;;;0.30;0.30;;;;;;;10.07;100.00;100533.19;4988954;28;20045;-74
2024/03/18 08:21:04;;;;;;;0.20;0.20;;;;;;;9.18;100.00;100497.75;4988594;28;20073;-74
2024/03/18 08:23:30;;;;;;;0.30;0.20;;;;;;;9.01;100.00;100532.53;4986204;28;20184;-74
2024/03/18 08:25:57;;;;;;;0.20;0.20;;;;;;;9.78;100.00;100532.16;4988327;28;20045;-75
2024/03/18 08:28:23;;;;;;;1.85;1.75;;;;;;;9.20;100.00;100496.00;4989939;28;20133;-74
2024/03/18 08:30:49;;;;;;;0.85;0.82;;;;;;;8.98;100.00;100522.03;4985807;28;20780;-73
2024/03/18 08:33:14;;;;;;;0.32;0.32;;;;;;;9.63;100.00;100525.97;4992148;28;20509;-75
2024/03/18 08:35:40;;;;;;;1.95;1.15;;;;;;;9.21;100.00;100490.78;4993236;28;20494;-74
2024/03/18 08:38:06;;;;;;;2.60;2.40;;;;;;;9.80;100.00;100480.63;4989743;28;20431;-75
2024/03/18 08:40:31;;;;;;;2.28;2.17;;;;;;;10.11;100.00;100492.09;4990274;28;20048;-73
2024/03/18 08:42:57;;;;;;;2.38;2.15;;;;;;;9.99;100.00;100495.56;4988638;28;20152;-76
2024/03/18 08:45:23;;;;;;;0.35;0.35;;;;;;;10.42;100.00;100513.19;4990030;28;20054;-75
2024/03/18 08:47:49;;;;;;;2.45;1.13;;;;;;;9.67;100.00;100498.94;4990315;28;20076;-78
2024/03/18 08:50:15;;;;;;;3.53;3.40;;;;;;;9.35;100.00;100467.31;4994817;28;20045;-80
2024/03/18 08:52:41;;;;;;;0.30;0.30;;;;;;;10.11;100.00;100463.25;5011880;28;20034;-75
2024/03/18 08:55:09;;;;;;;7.15;3.33;;;;;;;9.72;100.00;100497.19;5020359;28;20045;-75
2024/03/18 08:57:34;;;;;;;0.73;0.68;;;;;;;10.46;100.00;100481.72;4996387;28;20042;-74
2024/03/18 09:00:01;;;;;;;0.30;0.30;;;;;;;10.56;100.00;100494.00;4994322;28;20187;-76
2024/03/18 09:02:27;;;;;;;1.60;1.50;;;;;;;10.02;100.00;100492.97;4991250;28;20053;-76
2024/03/18 09:04:53;;;;;;;0.68;0.68;;;;;;;10.34;100.00;100474.69;4992179;28;20148;-75
2024/03/18 09:07:19;;;;;;;0.75;0.75;;;;;;;10.23;100.00;100446.69;4992808;28;20490;-75
2024/03/18 09:09:44;;;;;;;0.88;0.82;;;;;;;10.53;100.00;100467.72;4991339;28;20100;-78
2024/03/18 09:12:10;;;;;;;0.25;0.25;;;;;;;10.42;100.00;100448.50;4992671;28;20073;-76
2024/03/18 09:14:36;;;;;;;0.35;0.35;;;;;;;10.54;100.00;100450.25;5000652;28;20073;-78
2024/03/18 09:17:02;;;;;;;7.65;4.82;;;;;;;10.14;100.00;100458.03;5014175;28;20037;-77
2024/03/18 09:19:39;;;;;;;1.42;1.27;;;;;;;10.52;100.00;100457.25;5014532;28;20034;-76
2024/03/18 09:22:05;;;;;;;2.70;2.03;;;;;;;10.90;100.00;100482.63;5010426;28;20103;-74
2024/03/18 09:24:33;;;;;;;0.35;0.35;;;;;;;10.52;100.00;100478.25;5007803;28;20088;-74
2024/03/18 09:27:02;;;;;;;0.30;0.30;;;;;;;11.07;100.00;100446.72;5007979;28;20080;-73
2024/03/18 09:29:29;;;;;;;4.30;2.75;;;;;;;10.78;100.00;100447.63;5024540;28;20046;-73
2024/03/18 09:31:55;;;;;;;2.17;1.98;;;;;;;10.67;100.00;100427.50;5008345;28;20041;-75
2024/03/18 09:34:21;;;;;;;0.77;0.77;;;;;;;11.18;100.00;100468.59;4992329;28;20131;-75
2024/03/18 09:36:46;;;;;;;0.30;0.30;;;;;;;10.07;100.00;100438.78;4988118;28;20057;-76
2024/03/18 09:39:12;;;;;;;0.82;0.77;;;;;;;10.97;100.00;100460.75;4991009;28;20133;-75
2024/03/18 09:41:43;;;;;;;1.42;1.33;;;;;;;10.62;100.00;100456.38;4988970;28;20061;-74
2024/03/18 09:44:13;;;;;;;2.78;2.50;;;;;;;11.09;100.00;100439.72;4989845;28;20050;-74
2024/03/18 09:46:38;;;;;;;2.22;1.98;;;;;;;11.03;100.00;100437.13;4989990;28;20044;-75
2024/03/18 09:49:13;;;;;;;1.88;1.60;;;;;;;10.59;100.00;100427.53;4981589;28;20049;-74
2024/03/18 09:51:40;;;;;;;2.10;1.60;;;;;;;11.35;100.00;100439.66;4984477;28;20068;-75
2024/03/18 09:54:14;;;;;;;8.07;2.50;;;;;;;10.90;100.00;100419.63;4981013;28;20173;-74
2024/03/18 09:56:40;;;;;;;;;;;;;;;11.24;100.00;100454.59;4985145;28;20049;-75
2024/03/18 09:59:05;;;;;;;4.13;2.42;;;;;;;11.55;100.00;100439.59;4984351;28;21458;-75
2024/03/18 10:01:32;;;;;;;1.85;1.48;;;;;;;11.55;100.00;100446.63;4984950;28;20041;-75
2024/03/18 10:03:58;;;;;;;1.27;1.17;;;;;;;10.33;100.00;100431.00;4981265;28;20144;-75
2024/03/18 10:06:25;;;;;;;1.05;0.93;;;;;;;10.97;100.00;100438.00;4984981;28;20046;-76
2024/03/18 10:08:51;;;;;;;1.52;1.35;;;;;;;11.48;100.00;100432.63;4980256;28;20076;-74
2024/03/18 10:11:16;;;;;;;1.13;1.05;;;;;;;10.65;100.00;100406.53;4981056;28;20110;-77
2024/03/18 10:13:42;;;;;;;2.10;1.85;;;;;;;11.31;100.00;100398.53;4981300;28;20124;-76
2024/03/18 10:16:12;;;;;;;1.13;0.95;;;;;;;10.58;100.00;100431.00;4983830;28;20104;-77
2024/03/18 10:18:37;;;;;;;4.25;3.40;;;;;;;10.64;100.00;100404.78;4981592;28;20060;-76
2024/03/18 10:21:03;;;;;;;0.98;0.77;;;;;;;10.71;100.00;100431.91;4982079;28;20045;-77
2024/03/18 10:23:29;;;;;;;1.33;1.23;;;;;;;11.15;100.00;100417.84;4979483;28;20046;-76
2024/03/18 10:25:55;;;;;;;4.78;3.60;;;;;;;11.01;100.00;100415.25;4982445;28;20040;-77
2024/03/18 10:28:20;;;;;;;1.63;1.42;;;;;;;11.51;100.00;100384.44;4979045;28;20049;-79
2024/03/18 10:30:46;;;;;;;2.25;2.05;;;;;;;11.58;100.00;100412.44;4980119;28;20050;-78
2024/03/18 10:33:17;;;;;;;0.38;0.38;;;;;;;11.48;100.00;100381.84;4980002;28;20068;-78
2024/03/18 10:35:48;;;;;;;4.10;1.30;;;;;;;11.08;100.00;100381.97;4978192;28;20563;-78
2024/03/18 10:38:23;;;;;;;0.95;0.75;;;;;;;11.98;100.00;100367.56;4977643;28;20045;-77
2024/03/18 10:40:52;;;;;;;2.28;2.08;;;;;;;12.44;100.00;100399.69;4982314;28;20106;-78
2024/03/18 10:43:26;;;;;;;2.63;2.40;;;;;;;12.51;100.00;100410.16;4982230;28;20059;-77
2024/03/18 10:45:53;;;;;;;3.17;2.85;;;;;;;12.69;100.00;100402.13;4982388;28;20049;-76
2024/03/18 10:48:19;;;;;;;2.35;2.15;;;;;;;13.18;100.00;100393.75;4981423;28;20061;-76
2024/03/18 10:50:46;;;;;;;2.10;1.90;;;;;;;12.96;100.00;100400.97;4984060;28;20046;-77
2024/03/18 10:53:20;;;;;;;2.25;1.95;;;;;;;12.59;100.00;100367.09;4977247;28;20092;-76
2024/03/18 10:55:52;;;;;;;0.75;0.75;;;;;;;11.51;100.00;100351.16;4994929;28;20073;-75
2024/03/18 10:58:23;;;;;;;6.72;4.57;;;;;;;12.73;100.00;100387.16;4987715;28;20085;-77
2024/03/18 11:00:50;;;;;;;1.20;1.10;;;;;;;13.32;100.00;100358.47;4988116;28;20122;-78
2024/03/18 11:03:18;;;;;;;1.45;1.33;;;;;;;13.80;100.00;100353.44;4986923;28;20049;-79
2024/03/18 11:05:52;;;;;;;1.95;1.40;;;;;;;12.82;100.00;100380.03;4986556;28;20129;-78
2024/03/18 11:08:20;;;;;;;1.25;0.98;;;;;;;12.01;100.00;100346.50;4989396;28;20188;-77
2024/03/18 11:10:47;;;;;;;15.38;2.40;;;;;;;10.99;100.00;100346.09;4985904;28;20060;-76
2024/03/18 11:13:36;;;;;;;2.00;1.85;;;;;;;11.96;100.00;100378.13;4987794;28;20068;-75
2024/03/18 11:16:09;;;;;;;6.68;3.10;;;;;;;11.71;100.00;100368.59;4990632;28;20054;-77
2024/03/18 11:18:45;;;;;;;5.57;3.13;;;;;;;12.21;100.00;100364.78;4991993;28;20061;-75
2024/03/18 11:21:24;;;;;;;2.72;2.53;;;;;;;11.09;100.00;100341.69;4992267;28;20054;-74
2024/03/18 11:24:01;;;;;;;13.20;2.70;;;;;;;12.02;100.00;100343.88;4989057;28;20054;-77
2024/03/18 11:26:35;;;;;;;3.90;3.00;;;;;;;11.60;100.00;100330.06;4989812;28;20045;-77